sensor_id;sensor_type;location;lat;lon;timestamp;P1;durP1;ratioP1;P2;durP2;ratioP2
59416;SDS011;45222;52.458;20.914;2022-08-19T00:01:48;15.00;;;10.60;;
59416;SDS011;45222;52.458;20.914;2022-08-19T00:04:55;12.40;;;10.70;;
59416;SDS011;45222;52.458;20.914;2022-08-19T00:08:00;13.70;;;11.00;;
59416;SDS011;45222;52.458;20.914;2022-08-19T00:11:06;16.20;;;11.70;;
59416;SDS011;45222;52.458;20.914;2022-08-19T00:14:13;15.10;;;11.90;;
59416;SDS011;45222;52.458;20.914;2022-08-19T00:17:20;14.70;;;11.10;;
59416;SDS011;45222;52.458;20.914;2022-08-19T00:20:25;15.20;;;10.40;;
59416;SDS011;45222;52.458;20.914;2022-08-19T00:23:31;16.30;;;10.90;;
59416;SDS011;45222;52.458;20.914;2022-08-19T00:26:39;13.60;;;11.50;;
59416;SDS011;45222;52.458;20.914;2022-08-19T00:29:45;16.60;;;11.90;;
59416;SDS011;45222;52.458;20.914;2022-08-19T00:32:50;13.90;;;12.00;;
59416;SDS011;45222;52.458;20.914;2022-08-19T00:35:57;12.40;;;10.80;;
59416;SDS011;45222;52.458;20.914;2022-08-19T00:39:03;14.80;;;10.60;;
59416;SDS011;45222;52.458;20.914;2022-08-19T00:42:09;13.60;;;10.70;;
59416;SDS011;45222;52.458;20.914;2022-08-19T00:45:19;12.60;;;10.30;;
59416;SDS011;45222;52.458;20.914;2022-08-19T00:48:26;15.90;;;11.60;;
59416;SDS011;45222;52.458;20.914;2022-08-19T00:51:32;14.20;;;11.00;;
59416;SDS011;45222;52.458;20.914;2022-08-19T00:54:37;17.30;;;11.70;;
59416;SDS011;45222;52.458;20.914;2022-08-19T00:57:45;14.30;;;11.10;;
59416;SDS011;45222;52.458;20.914;2022-08-19T01:00:54;13.80;;;10.80;;
59416;SDS011;45222;52.458;20.914;2022-08-19T01:04:00;14.40;;;11.10;;
59416;SDS011;45222;52.458;20.914;2022-08-19T01:07:05;14.30;;;10.90;;
59416;SDS011;45222;52.458;20.914;2022-08-19T01:10:12;14.20;;;10.70;;
59416;SDS011;45222;52.458;20.914;2022-08-19T01:13:23;13.40;;;10.50;;
59416;SDS011;45222;52.458;20.914;2022-08-19T01:16:32;15.30;;;10.90;;
59416;SDS011;45222;52.458;20.914;2022-08-19T01:19:40;15.60;;;11.40;;
59416;SDS011;45222;52.458;20.914;2022-08-19T01:22:50;14.40;;;11.60;;
59416;SDS011;45222;52.458;20.914;2022-08-19T01:25:57;17.60;;;11.60;;
59416;SDS011;45222;52.458;20.914;2022-08-19T01:29:03;14.70;;;11.70;;
59416;SDS011;45222;52.458;20.914;2022-08-19T01:32:11;18.90;;;11.60;;
59416;SDS011;45222;52.458;20.914;2022-08-19T01:38:24;15.70;;;11.60;;
59416;SDS011;45222;52.458;20.914;2022-08-19T01:41:30;15.10;;;11.70;;
59416;SDS011;45222;52.458;20.914;2022-08-19T01:44:36;14.60;;;12.40;;
59416;SDS011;45222;52.458;20.914;2022-08-19T01:47:43;14.90;;;12.80;;
59416;SDS011;45222;52.458;20.914;2022-08-19T01:50:49;16.60;;;11.50;;
59416;SDS011;45222;52.458;20.914;2022-08-19T01:53:54;16.00;;;11.40;;
59416;SDS011;45222;52.458;20.914;2022-08-19T01:57:01;15.10;;;11.40;;
59416;SDS011;45222;52.458;20.914;2022-08-19T02:00:11;13.50;;;11.30;;
59416;SDS011;45222;52.458;20.914;2022-08-19T02:03:19;17.20;;;11.20;;
59416;SDS011;45222;52.458;20.914;2022-08-19T02:06:25;14.90;;;12.30;;
59416;SDS011;45222;52.458;20.914;2022-08-19T02:09:31;14.40;;;12.20;;
59416;SDS011;45222;52.458;20.914;2022-08-19T02:12:37;16.10;;;12.00;;
59416;SDS011;45222;52.458;20.914;2022-08-19T02:15:43;17.50;;;11.50;;
59416;SDS011;45222;52.458;20.914;2022-08-19T02:18:49;15.20;;;11.20;;
59416;SDS011;45222;52.458;20.914;2022-08-19T02:21:54;13.70;;;11.80;;
59416;SDS011;45222;52.458;20.914;2022-08-19T02:25:00;13.90;;;12.00;;
59416;SDS011;45222;52.458;20.914;2022-08-19T02:28:06;17.00;;;13.20;;
59416;SDS011;45222;52.458;20.914;2022-08-19T02:31:12;15.90;;;11.80;;
59416;SDS011;45222;52.458;20.914;2022-08-19T02:34:19;16.00;;;11.90;;
59416;SDS011;45222;52.458;20.914;2022-08-19T02:37:25;15.60;;;11.70;;
59416;SDS011;45222;52.458;20.914;2022-08-19T02:40:52;13.90;;;11.70;;
59416;SDS011;45222;52.458;20.914;2022-08-19T02:44:01;13.10;;;11.00;;
59416;SDS011;45222;52.458;20.914;2022-08-19T02:47:07;14.40;;;11.10;;
59416;SDS011;45222;52.458;20.914;2022-08-19T02:50:14;15.20;;;12.00;;
59416;SDS011;45222;52.458;20.914;2022-08-19T02:53:31;13.70;;;12.00;;
59416;SDS011;45222;52.458;20.914;2022-08-19T02:56:43;14.70;;;11.40;;
59416;SDS011;45222;52.458;20.914;2022-08-19T02:59:49;14.20;;;11.00;;
59416;SDS011;45222;52.458;20.914;2022-08-19T03:02:55;13.60;;;11.50;;
59416;SDS011;45222;52.458;20.914;2022-08-19T03:06:07;14.00;;;11.10;;
59416;SDS011;45222;52.458;20.914;2022-08-19T03:09:19;15.80;;;11.50;;
59416;SDS011;45222;52.458;20.914;2022-08-19T03:12:29;14.20;;;10.60;;
59416;SDS011;45222;52.458;20.914;2022-08-19T03:15:35;15.50;;;11.50;;
59416;SDS011;45222;52.458;20.914;2022-08-19T03:18:44;13.30;;;11.90;;
59416;SDS011;45222;52.458;20.914;2022-08-19T03:21:50;12.70;;;11.00;;
59416;SDS011;45222;52.458;20.914;2022-08-19T03:24:56;14.90;;;11.10;;
59416;SDS011;45222;52.458;20.914;2022-08-19T03:28:01;13.20;;;10.60;;
59416;SDS011;45222;52.458;20.914;2022-08-19T03:31:07;15.30;;;11.00;;
59416;SDS011;45222;52.458;20.914;2022-08-19T03:34:15;15.20;;;10.30;;
59416;SDS011;45222;52.458;20.914;2022-08-19T03:37:21;14.40;;;11.70;;
59416;SDS011;45222;52.458;20.914;2022-08-19T03:40:27;14.50;;;11.40;;
59416;SDS011;45222;52.458;20.914;2022-08-19T03:43:33;14.50;;;11.80;;
59416;SDS011;45222;52.458;20.914;2022-08-19T03:46:40;16.50;;;11.30;;
59416;SDS011;45222;52.458;20.914;2022-08-19T03:49:47;13.70;;;11.00;;
59416;SDS011;45222;52.458;20.914;2022-08-19T03:53:01;15.00;;;10.50;;
59416;SDS011;45222;52.458;20.914;2022-08-19T03:56:10;15.80;;;11.00;;
59416;SDS011;45222;52.458;20.914;2022-08-19T03:59:17;15.20;;;11.30;;
59416;SDS011;45222;52.458;20.914;2022-08-19T04:02:24;13.80;;;10.60;;
59416;SDS011;45222;52.458;20.914;2022-08-19T04:05:30;12.60;;;11.20;;
59416;SDS011;45222;52.458;20.914;2022-08-19T04:08:35;18.10;;;11.60;;
59416;SDS011;45222;52.458;20.914;2022-08-19T04:11:42;13.70;;;11.00;;
59416;SDS011;45222;52.458;20.914;2022-08-19T04:14:49;14.10;;;10.90;;
59416;SDS011;45222;52.458;20.914;2022-08-19T04:17:54;16.70;;;10.80;;
59416;SDS011;45222;52.458;20.914;2022-08-19T04:20:59;13.20;;;10.30;;
59416;SDS011;45222;52.458;20.914;2022-08-19T04:24:06;14.30;;;10.70;;
59416;SDS011;45222;52.458;20.914;2022-08-19T04:27:15;15.60;;;11.40;;
59416;SDS011;45222;52.458;20.914;2022-08-19T04:30:20;14.90;;;11.50;;
59416;SDS011;45222;52.458;20.914;2022-08-19T04:33:26;12.70;;;11.30;;
59416;SDS011;45222;52.458;20.914;2022-08-19T04:36:32;14.40;;;10.80;;
59416;SDS011;45222;52.458;20.914;2022-08-19T04:39:39;15.70;;;10.80;;
59416;SDS011;45222;52.458;20.914;2022-08-19T04:43:02;13.40;;;10.50;;
59416;SDS011;45222;52.458;20.914;2022-08-19T04:46:08;13.80;;;10.60;;
59416;SDS011;45222;52.458;20.914;2022-08-19T04:49:16;14.30;;;11.10;;
59416;SDS011;45222;52.458;20.914;2022-08-19T04:52:25;15.20;;;11.10;;
59416;SDS011;45222;52.458;20.914;2022-08-19T04:55:30;13.30;;;10.80;;
59416;SDS011;45222;52.458;20.914;2022-08-19T04:58:38;13.70;;;10.30;;
59416;SDS011;45222;52.458;20.914;2022-08-19T05:01:45;15.60;;;10.20;;
59416;SDS011;45222;52.458;20.914;2022-08-19T05:04:55;17.90;;;9.80;;
59416;SDS011;45222;52.458;20.914;2022-08-19T05:08:03;13.60;;;10.60;;
59416;SDS011;45222;52.458;20.914;2022-08-19T05:11:10;15.40;;;10.30;;
59416;SDS011;45222;52.458;20.914;2022-08-19T05:14:17;12.70;;;10.50;;
59416;SDS011;45222;52.458;20.914;2022-08-19T05:17:23;13.20;;;9.60;;
59416;SDS011;45222;52.458;20.914;2022-08-19T05:20:30;28.60;;;11.70;;
59416;SDS011;45222;52.458;20.914;2022-08-19T05:23:53;14.20;;;10.20;;
59416;SDS011;45222;52.458;20.914;2022-08-19T05:27:00;12.70;;;9.50;;
59416;SDS011;45222;52.458;20.914;2022-08-19T05:30:08;14.70;;;10.50;;
59416;SDS011;45222;52.458;20.914;2022-08-19T05:33:14;17.20;;;10.10;;
59416;SDS011;45222;52.458;20.914;2022-08-19T05:36:19;13.30;;;9.40;;
59416;SDS011;45222;52.458;20.914;2022-08-19T05:39:28;12.90;;;9.80;;
59416;SDS011;45222;52.458;20.914;2022-08-19T05:42:35;17.50;;;10.00;;
59416;SDS011;45222;52.458;20.914;2022-08-19T05:45:41;14.50;;;10.20;;
59416;SDS011;45222;52.458;20.914;2022-08-19T05:48:47;15.40;;;9.40;;
59416;SDS011;45222;52.458;20.914;2022-08-19T05:51:53;11.90;;;9.20;;
59416;SDS011;45222;52.458;20.914;2022-08-19T05:54:59;13.70;;;9.10;;
59416;SDS011;45222;52.458;20.914;2022-08-19T05:58:04;14.40;;;9.70;;
59416;SDS011;45222;52.458;20.914;2022-08-19T06:01:10;13.80;;;10.20;;
59416;SDS011;45222;52.458;20.914;2022-08-19T06:04:18;13.70;;;9.70;;
59416;SDS011;45222;52.458;20.914;2022-08-19T06:07:23;15.20;;;9.50;;
59416;SDS011;45222;52.458;20.914;2022-08-19T06:10:30;14.30;;;9.40;;
59416;SDS011;45222;52.458;20.914;2022-08-19T06:13:35;16.20;;;10.00;;
59416;SDS011;45222;52.458;20.914;2022-08-19T06:16:41;11.40;;;9.20;;
59416;SDS011;45222;52.458;20.914;2022-08-19T06:19:47;14.80;;;9.80;;
59416;SDS011;45222;52.458;20.914;2022-08-19T06:22:53;14.40;;;9.50;;
59416;SDS011;45222;52.458;20.914;2022-08-19T06:29:05;15.70;;;9.80;;
59416;SDS011;45222;52.458;20.914;2022-08-19T06:32:14;14.20;;;9.30;;
59416;SDS011;45222;52.458;20.914;2022-08-19T06:38:25;12.40;;;9.20;;
59416;SDS011;45222;52.458;20.914;2022-08-19T06:41:30;11.10;;;8.90;;
59416;SDS011;45222;52.458;20.914;2022-08-19T06:44:38;16.30;;;9.90;;
59416;SDS011;45222;52.458;20.914;2022-08-19T06:47:45;14.70;;;10.10;;
59416;SDS011;45222;52.458;20.914;2022-08-19T06:50:51;15.90;;;10.00;;
59416;SDS011;45222;52.458;20.914;2022-08-19T06:53:56;16.10;;;10.00;;
59416;SDS011;45222;52.458;20.914;2022-08-19T06:57:01;18.30;;;10.20;;
59416;SDS011;45222;52.458;20.914;2022-08-19T07:00:08;13.10;;;9.50;;
59416;SDS011;45222;52.458;20.914;2022-08-19T07:03:16;19.70;;;9.60;;
59416;SDS011;45222;52.458;20.914;2022-08-19T07:06:22;12.80;;;9.10;;
59416;SDS011;45222;52.458;20.914;2022-08-19T07:09:28;14.40;;;9.40;;
59416;SDS011;45222;52.458;20.914;2022-08-19T07:12:33;15.50;;;9.30;;
59416;SDS011;45222;52.458;20.914;2022-08-19T07:15:39;15.90;;;9.10;;
59416;SDS011;45222;52.458;20.914;2022-08-19T07:18:44;14.50;;;9.20;;
59416;SDS011;45222;52.458;20.914;2022-08-19T07:21:50;14.40;;;9.30;;
59416;SDS011;45222;52.458;20.914;2022-08-19T07:24:56;13.60;;;9.50;;
59416;SDS011;45222;52.458;20.914;2022-08-19T07:28:02;13.80;;;8.80;;
59416;SDS011;45222;52.458;20.914;2022-08-19T07:31:11;14.00;;;9.20;;
59416;SDS011;45222;52.458;20.914;2022-08-19T07:34:17;12.70;;;9.30;;
59416;SDS011;45222;52.458;20.914;2022-08-19T07:37:24;12.90;;;8.70;;
59416;SDS011;45222;52.458;20.914;2022-08-19T07:40:31;29.30;;;9.70;;
59416;SDS011;45222;52.458;20.914;2022-08-19T07:43:37;19.40;;;9.80;;
59416;SDS011;45222;52.458;20.914;2022-08-19T07:46:46;13.10;;;9.20;;
59416;SDS011;45222;52.458;20.914;2022-08-19T07:49:53;20.30;;;9.50;;
59416;SDS011;45222;52.458;20.914;2022-08-19T07:52:58;13.30;;;8.60;;
59416;SDS011;45222;52.458;20.914;2022-08-19T07:56:04;16.40;;;9.20;;
59416;SDS011;45222;52.458;20.914;2022-08-19T07:59:11;13.70;;;9.20;;
59416;SDS011;45222;52.458;20.914;2022-08-19T08:02:18;12.30;;;9.10;;
59416;SDS011;45222;52.458;20.914;2022-08-19T08:05:23;14.00;;;9.20;;
59416;SDS011;45222;52.458;20.914;2022-08-19T08:08:46;12.30;;;9.10;;
59416;SDS011;45222;52.458;20.914;2022-08-19T08:12:11;15.10;;;9.60;;
59416;SDS011;45222;52.458;20.914;2022-08-19T08:15:22;58.70;;;11.30;;
59416;SDS011;45222;52.458;20.914;2022-08-19T08:18:31;12.70;;;8.80;;
59416;SDS011;45222;52.458;20.914;2022-08-19T08:21:46;11.60;;;8.30;;
59416;SDS011;45222;52.458;20.914;2022-08-19T08:24:52;12.90;;;8.60;;
59416;SDS011;45222;52.458;20.914;2022-08-19T08:31:05;14.10;;;8.90;;
59416;SDS011;45222;52.458;20.914;2022-08-19T08:34:13;19.70;;;9.20;;
59416;SDS011;45222;52.458;20.914;2022-08-19T08:37:19;12.40;;;8.10;;
59416;SDS011;45222;52.458;20.914;2022-08-19T08:40:28;12.90;;;8.40;;
59416;SDS011;45222;52.458;20.914;2022-08-19T08:43:47;13.90;;;8.20;;
59416;SDS011;45222;52.458;20.914;2022-08-19T08:46:56;32.90;;;8.90;;
59416;SDS011;45222;52.458;20.914;2022-08-19T08:50:07;11.90;;;8.50;;
59416;SDS011;45222;52.458;20.914;2022-08-19T08:53:22;25.30;;;8.90;;
59416;SDS011;45222;52.458;20.914;2022-08-19T08:56:28;13.00;;;8.20;;
59416;SDS011;45222;52.458;20.914;2022-08-19T08:59:35;12.50;;;7.70;;
59416;SDS011;45222;52.458;20.914;2022-08-19T09:02:43;13.90;;;8.10;;
59416;SDS011;45222;52.458;20.914;2022-08-19T09:05:50;13.70;;;8.30;;
59416;SDS011;45222;52.458;20.914;2022-08-19T09:09:03;16.10;;;8.10;;
59416;SDS011;45222;52.458;20.914;2022-08-19T09:12:21;14.50;;;8.20;;
59416;SDS011;45222;52.458;20.914;2022-08-19T09:15:38;11.60;;;7.80;;
59416;SDS011;45222;52.458;20.914;2022-08-19T09:18:49;14.70;;;8.20;;
59416;SDS011;45222;52.458;20.914;2022-08-19T09:21:56;318.10;;;23.80;;
59416;SDS011;45222;52.458;20.914;2022-08-19T09:25:03;17.70;;;8.00;;
59416;SDS011;45222;52.458;20.914;2022-08-19T09:28:12;15.80;;;7.80;;
59416;SDS011;45222;52.458;20.914;2022-08-19T09:31:20;17.30;;;8.30;;
59416;SDS011;45222;52.458;20.914;2022-08-19T09:34:27;13.70;;;7.60;;
59416;SDS011;45222;52.458;20.914;2022-08-19T09:37:32;12.20;;;7.30;;
59416;SDS011;45222;52.458;20.914;2022-08-19T09:40:38;11.40;;;7.70;;
59416;SDS011;45222;52.458;20.914;2022-08-19T09:43:45;13.00;;;7.50;;
59416;SDS011;45222;52.458;20.914;2022-08-19T09:46:54;36.10;;;8.70;;
59416;SDS011;45222;52.458;20.914;2022-08-19T09:49:59;15.40;;;7.80;;
59416;SDS011;45222;52.458;20.914;2022-08-19T09:53:05;12.70;;;8.00;;
59416;SDS011;45222;52.458;20.914;2022-08-19T09:56:10;14.30;;;8.00;;
59416;SDS011;45222;52.458;20.914;2022-08-19T09:59:16;11.30;;;7.50;;
59416;SDS011;45222;52.458;20.914;2022-08-19T10:02:22;19.10;;;8.10;;
59416;SDS011;45222;52.458;20.914;2022-08-19T10:05:27;12.80;;;8.10;;
59416;SDS011;45222;52.458;20.914;2022-08-19T10:08:56;14.80;;;7.60;;
59416;SDS011;45222;52.458;20.914;2022-08-19T10:12:01;10.80;;;7.40;;
59416;SDS011;45222;52.458;20.914;2022-08-19T10:15:08;14.20;;;8.30;;
59416;SDS011;45222;52.458;20.914;2022-08-19T10:18:16;14.50;;;7.50;;
59416;SDS011;45222;52.458;20.914;2022-08-19T10:21:24;10.60;;;7.50;;
59416;SDS011;45222;52.458;20.914;2022-08-19T10:24:31;11.70;;;7.50;;
59416;SDS011;45222;52.458;20.914;2022-08-19T10:27:37;10.80;;;7.90;;
59416;SDS011;45222;52.458;20.914;2022-08-19T10:30:42;17.90;;;8.10;;
59416;SDS011;45222;52.458;20.914;2022-08-19T10:33:47;13.30;;;7.70;;
59416;SDS011;45222;52.458;20.914;2022-08-19T10:36:59;18.10;;;8.00;;
59416;SDS011;45222;52.458;20.914;2022-08-19T10:40:06;14.00;;;7.80;;
59416;SDS011;45222;52.458;20.914;2022-08-19T10:43:14;15.60;;;7.60;;
59416;SDS011;45222;52.458;20.914;2022-08-19T10:46:20;12.50;;;7.80;;
59416;SDS011;45222;52.458;20.914;2022-08-19T10:49:26;12.10;;;7.60;;
59416;SDS011;45222;52.458;20.914;2022-08-19T10:52:32;24.30;;;8.60;;
59416;SDS011;45222;52.458;20.914;2022-08-19T10:55:37;12.50;;;7.30;;
59416;SDS011;45222;52.458;20.914;2022-08-19T10:59:01;13.70;;;8.00;;
59416;SDS011;45222;52.458;20.914;2022-08-19T11:02:07;11.70;;;7.50;;
59416;SDS011;45222;52.458;20.914;2022-08-19T11:05:15;13.40;;;7.20;;
59416;SDS011;45222;52.458;20.914;2022-08-19T11:08:21;12.10;;;7.60;;
59416;SDS011;45222;52.458;20.914;2022-08-19T11:11:30;11.00;;;7.40;;
59416;SDS011;45222;52.458;20.914;2022-08-19T11:14:43;58.70;;;9.40;;
59416;SDS011;45222;52.458;20.914;2022-08-19T11:17:53;13.20;;;7.70;;
59416;SDS011;45222;52.458;20.914;2022-08-19T11:21:09;12.40;;;7.20;;
59416;SDS011;45222;52.458;20.914;2022-08-19T11:24:25;12.50;;;7.30;;
59416;SDS011;45222;52.458;20.914;2022-08-19T11:27:31;13.50;;;6.80;;
59416;SDS011;45222;52.458;20.914;2022-08-19T11:30:37;10.20;;;6.70;;
59416;SDS011;45222;52.458;20.914;2022-08-19T11:33:43;13.50;;;7.00;;
59416;SDS011;45222;52.458;20.914;2022-08-19T11:36:49;14.00;;;6.80;;
59416;SDS011;45222;52.458;20.914;2022-08-19T11:39:55;11.50;;;6.80;;
59416;SDS011;45222;52.458;20.914;2022-08-19T11:43:01;12.20;;;6.50;;
59416;SDS011;45222;52.458;20.914;2022-08-19T11:46:08;10.30;;;6.20;;
59416;SDS011;45222;52.458;20.914;2022-08-19T11:49:15;11.90;;;6.30;;
59416;SDS011;45222;52.458;20.914;2022-08-19T11:52:22;13.70;;;6.70;;
59416;SDS011;45222;52.458;20.914;2022-08-19T11:55:27;11.20;;;6.30;;
59416;SDS011;45222;52.458;20.914;2022-08-19T11:58:33;13.50;;;6.50;;
59416;SDS011;45222;52.458;20.914;2022-08-19T12:01:39;12.50;;;6.20;;
59416;SDS011;45222;52.458;20.914;2022-08-19T12:04:45;12.20;;;5.90;;
59416;SDS011;45222;52.458;20.914;2022-08-19T12:07:50;16.10;;;6.30;;
59416;SDS011;45222;52.458;20.914;2022-08-19T12:10:57;11.90;;;6.30;;
59416;SDS011;45222;52.458;20.914;2022-08-19T12:14:03;14.00;;;6.70;;
59416;SDS011;45222;52.458;20.914;2022-08-19T12:17:10;11.20;;;5.80;;
59416;SDS011;45222;52.458;20.914;2022-08-19T12:20:15;11.20;;;5.80;;
59416;SDS011;45222;52.458;20.914;2022-08-19T12:23:21;11.50;;;5.90;;
59416;SDS011;45222;52.458;20.914;2022-08-19T12:26:26;14.70;;;6.00;;
59416;SDS011;45222;52.458;20.914;2022-08-19T12:29:36;13.50;;;5.40;;
59416;SDS011;45222;52.458;20.914;2022-08-19T12:32:48;12.70;;;5.80;;
59416;SDS011;45222;52.458;20.914;2022-08-19T12:35:59;10.90;;;5.50;;
59416;SDS011;45222;52.458;20.914;2022-08-19T12:39:09;11.40;;;5.70;;
59416;SDS011;45222;52.458;20.914;2022-08-19T12:42:15;12.90;;;5.30;;
59416;SDS011;45222;52.458;20.914;2022-08-19T12:45:21;13.20;;;5.40;;
59416;SDS011;45222;52.458;20.914;2022-08-19T12:48:27;12.60;;;5.70;;
59416;SDS011;45222;52.458;20.914;2022-08-19T12:51:32;10.90;;;5.20;;
59416;SDS011;45222;52.458;20.914;2022-08-19T12:54:38;13.30;;;5.50;;
59416;SDS011;45222;52.458;20.914;2022-08-19T12:57:47;10.30;;;5.40;;
59416;SDS011;45222;52.458;20.914;2022-08-19T13:01:01;8.90;;;5.70;;
59416;SDS011;45222;52.458;20.914;2022-08-19T13:04:18;10.70;;;5.30;;
59416;SDS011;45222;52.458;20.914;2022-08-19T13:07:31;27.20;;;5.70;;
59416;SDS011;45222;52.458;20.914;2022-08-19T13:10:40;10.20;;;5.70;;
59416;SDS011;45222;52.458;20.914;2022-08-19T13:13:47;12.60;;;5.50;;
59416;SDS011;45222;52.458;20.914;2022-08-19T13:16:53;10.30;;;5.50;;
59416;SDS011;45222;52.458;20.914;2022-08-19T13:19:59;13.80;;;5.60;;
59416;SDS011;45222;52.458;20.914;2022-08-19T13:23:05;26.80;;;6.10;;
59416;SDS011;45222;52.458;20.914;2022-08-19T13:26:11;10.90;;;5.20;;
59416;SDS011;45222;52.458;20.914;2022-08-19T13:29:17;13.20;;;5.10;;
59416;SDS011;45222;52.458;20.914;2022-08-19T13:32:41;9.80;;;5.20;;
59416;SDS011;45222;52.458;20.914;2022-08-19T13:36:04;12.80;;;5.10;;
59416;SDS011;45222;52.458;20.914;2022-08-19T13:39:12;12.90;;;5.10;;
59416;SDS011;45222;52.458;20.914;2022-08-19T13:42:26;35.80;;;6.00;;
59416;SDS011;45222;52.458;20.914;2022-08-19T13:45:42;218.60;;;13.30;;
59416;SDS011;45222;52.458;20.914;2022-08-19T13:48:52;15.60;;;5.50;;
59416;SDS011;45222;52.458;20.914;2022-08-19T13:51:59;12.00;;;5.60;;
59416;SDS011;45222;52.458;20.914;2022-08-19T13:55:05;11.10;;;4.80;;
59416;SDS011;45222;52.458;20.914;2022-08-19T14:01:19;11.70;;;4.30;;
59416;SDS011;45222;52.458;20.914;2022-08-19T14:04:26;15.10;;;5.30;;
59416;SDS011;45222;52.458;20.914;2022-08-19T14:07:31;12.50;;;4.60;;
59416;SDS011;45222;52.458;20.914;2022-08-19T14:10:37;9.90;;;4.70;;
59416;SDS011;45222;52.458;20.914;2022-08-19T14:13:43;10.70;;;5.10;;
59416;SDS011;45222;52.458;20.914;2022-08-19T14:16:49;14.60;;;5.20;;
59416;SDS011;45222;52.458;20.914;2022-08-19T14:19:57;10.10;;;5.20;;
59416;SDS011;45222;52.458;20.914;2022-08-19T14:23:06;11.70;;;4.80;;
59416;SDS011;45222;52.458;20.914;2022-08-19T14:26:12;13.00;;;5.30;;
59416;SDS011;45222;52.458;20.914;2022-08-19T14:29:19;10.50;;;5.10;;
59416;SDS011;45222;52.458;20.914;2022-08-19T14:32:26;13.70;;;5.40;;
59416;SDS011;45222;52.458;20.914;2022-08-19T14:35:32;10.80;;;5.40;;
59416;SDS011;45222;52.458;20.914;2022-08-19T14:41:42;10.70;;;4.90;;
59416;SDS011;45222;52.458;20.914;2022-08-19T14:44:48;10.50;;;5.00;;
59416;SDS011;45222;52.458;20.914;2022-08-19T14:47:54;8.40;;;4.70;;
59416;SDS011;45222;52.458;20.914;2022-08-19T14:51:01;13.80;;;5.20;;
59416;SDS011;45222;52.458;20.914;2022-08-19T14:54:14;10.20;;;4.90;;
59416;SDS011;45222;52.458;20.914;2022-08-19T14:57:35;12.60;;;5.40;;
59416;SDS011;45222;52.458;20.914;2022-08-19T15:00:47;10.30;;;5.20;;
59416;SDS011;45222;52.458;20.914;2022-08-19T15:03:52;11.00;;;5.20;;
59416;SDS011;45222;52.458;20.914;2022-08-19T15:06:58;13.10;;;5.00;;
59416;SDS011;45222;52.458;20.914;2022-08-19T15:10:07;8.80;;;5.40;;
59416;SDS011;45222;52.458;20.914;2022-08-19T15:13:15;9.70;;;5.20;;
59416;SDS011;45222;52.458;20.914;2022-08-19T15:16:20;12.90;;;5.30;;
59416;SDS011;45222;52.458;20.914;2022-08-19T15:19:27;13.60;;;5.20;;
59416;SDS011;45222;52.458;20.914;2022-08-19T15:22:33;10.90;;;5.10;;
59416;SDS011;45222;52.458;20.914;2022-08-19T15:25:40;14.50;;;5.50;;
59416;SDS011;45222;52.458;20.914;2022-08-19T15:28:47;9.90;;;4.90;;
59416;SDS011;45222;52.458;20.914;2022-08-19T15:31:53;13.80;;;5.00;;
59416;SDS011;45222;52.458;20.914;2022-08-19T15:34:58;10.80;;;5.00;;
59416;SDS011;45222;52.458;20.914;2022-08-19T15:38:07;11.90;;;5.10;;
59416;SDS011;45222;52.458;20.914;2022-08-19T15:41:16;12.30;;;5.10;;
59416;SDS011;45222;52.458;20.914;2022-08-19T15:44:26;11.80;;;5.20;;
59416;SDS011;45222;52.458;20.914;2022-08-19T15:47:32;9.80;;;4.70;;
59416;SDS011;45222;52.458;20.914;2022-08-19T15:50:37;9.90;;;4.80;;
59416;SDS011;45222;52.458;20.914;2022-08-19T15:53:43;11.10;;;5.00;;
59416;SDS011;45222;52.458;20.914;2022-08-19T15:56:49;12.20;;;5.20;;
59416;SDS011;45222;52.458;20.914;2022-08-19T16:00:15;11.60;;;4.90;;
59416;SDS011;45222;52.458;20.914;2022-08-19T16:03:38;10.60;;;4.30;;
59416;SDS011;45222;52.458;20.914;2022-08-19T16:07:04;12.30;;;4.40;;
59416;SDS011;45222;52.458;20.914;2022-08-19T16:10:10;34.00;;;5.70;;
59416;SDS011;45222;52.458;20.914;2022-08-19T16:13:15;10.00;;;4.90;;
59416;SDS011;45222;52.458;20.914;2022-08-19T16:16:21;9.50;;;5.00;;
59416;SDS011;45222;52.458;20.914;2022-08-19T16:19:30;10.20;;;4.60;;
59416;SDS011;45222;52.458;20.914;2022-08-19T16:22:36;10.60;;;4.60;;
59416;SDS011;45222;52.458;20.914;2022-08-19T16:25:42;10.50;;;4.90;;
59416;SDS011;45222;52.458;20.914;2022-08-19T16:28:51;11.00;;;4.60;;
59416;SDS011;45222;52.458;20.914;2022-08-19T16:32:09;12.40;;;4.90;;
59416;SDS011;45222;52.458;20.914;2022-08-19T16:35:23;11.50;;;4.70;;
59416;SDS011;45222;52.458;20.914;2022-08-19T16:38:28;9.60;;;4.60;;
59416;SDS011;45222;52.458;20.914;2022-08-19T16:41:33;10.30;;;4.90;;
59416;SDS011;45222;52.458;20.914;2022-08-19T16:44:40;11.50;;;4.60;;
59416;SDS011;45222;52.458;20.914;2022-08-19T16:47:48;11.60;;;4.70;;
59416;SDS011;45222;52.458;20.914;2022-08-19T16:50:53;12.70;;;5.00;;
59416;SDS011;45222;52.458;20.914;2022-08-19T16:54:02;9.40;;;5.10;;
59416;SDS011;45222;52.458;20.914;2022-08-19T16:57:14;11.70;;;4.80;;
59416;SDS011;45222;52.458;20.914;2022-08-19T17:00:19;17.20;;;4.80;;
59416;SDS011;45222;52.458;20.914;2022-08-19T17:03:25;24.30;;;6.00;;
59416;SDS011;45222;52.458;20.914;2022-08-19T17:06:31;10.20;;;4.90;;
59416;SDS011;45222;52.458;20.914;2022-08-19T17:12:42;11.50;;;4.80;;
59416;SDS011;45222;52.458;20.914;2022-08-19T17:15:47;10.20;;;4.70;;
59416;SDS011;45222;52.458;20.914;2022-08-19T17:18:54;9.70;;;4.90;;
59416;SDS011;45222;52.458;20.914;2022-08-19T17:22:00;11.20;;;4.80;;
59416;SDS011;45222;52.458;20.914;2022-08-19T17:25:06;11.00;;;5.40;;
59416;SDS011;45222;52.458;20.914;2022-08-19T17:28:15;8.10;;;4.80;;
59416;SDS011;45222;52.458;20.914;2022-08-19T17:31:23;14.70;;;5.20;;
59416;SDS011;45222;52.458;20.914;2022-08-19T17:34:31;11.30;;;5.40;;
59416;SDS011;45222;52.458;20.914;2022-08-19T17:37:36;22.40;;;5.50;;
59416;SDS011;45222;52.458;20.914;2022-08-19T17:40:42;13.70;;;5.20;;
59416;SDS011;45222;52.458;20.914;2022-08-19T17:43:49;33.10;;;6.80;;
59416;SDS011;45222;52.458;20.914;2022-08-19T17:47:02;19.80;;;5.90;;
59416;SDS011;45222;52.458;20.914;2022-08-19T17:50:18;11.80;;;5.50;;
59416;SDS011;45222;52.458;20.914;2022-08-19T17:53:24;29.80;;;6.30;;
59416;SDS011;45222;52.458;20.914;2022-08-19T17:56:30;17.30;;;5.70;;
59416;SDS011;45222;52.458;20.914;2022-08-19T17:59:36;73.40;;;9.20;;
59416;SDS011;45222;52.458;20.914;2022-08-19T18:02:46;23.90;;;5.90;;
59416;SDS011;45222;52.458;20.914;2022-08-19T18:05:53;9.00;;;5.20;;
59416;SDS011;45222;52.458;20.914;2022-08-19T18:09:00;12.10;;;5.30;;
59416;SDS011;45222;52.458;20.914;2022-08-19T18:12:06;110.80;;;11.20;;
59416;SDS011;45222;52.458;20.914;2022-08-19T18:15:12;10.60;;;5.20;;
59416;SDS011;45222;52.458;20.914;2022-08-19T18:18:18;11.40;;;5.30;;
59416;SDS011;45222;52.458;20.914;2022-08-19T18:21:24;12.50;;;5.40;;
59416;SDS011;45222;52.458;20.914;2022-08-19T18:24:36;10.20;;;5.60;;
59416;SDS011;45222;52.458;20.914;2022-08-19T18:27:43;11.50;;;5.60;;
59416;SDS011;45222;52.458;20.914;2022-08-19T18:30:49;14.50;;;5.50;;
59416;SDS011;45222;52.458;20.914;2022-08-19T18:33:54;12.40;;;5.00;;
59416;SDS011;45222;52.458;20.914;2022-08-19T18:37:00;11.30;;;5.10;;